Time;durP1;ratioP1;P1;durP2;ratioP2;P2;SDS_P1;SDS_P2;PMS_P1;PMS_P2;Temp;Humidity;BMP_temperature;BMP_pressure;BME280_temperature;BME280_humidity;BME280_pressure;Samples;Min_cycle;Max_cycle;Signal;HPM_P1;HPM_P2
2021/04/12 00:01:57;;;;;;;10.07;5.05;;;2.30;99.90;;;;;;4873886;29;20116;-75
2021/04/12 00:04:46;;;;;;;7.72;4.30;;;2.20;99.90;;;;;;4862287;29;20049;-75
2021/04/12 00:07:32;;;;;;;8.27;4.35;;;2.10;99.90;;;;;;4866936;29;20515;-75
2021/04/12 00:10:16;;;;;;;10.93;5.47;;;2.00;99.90;;;;;;4890124;29;20053;-75
2021/04/12 00:12:52;;;;;;;4.70;4.27;;;2.10;99.90;;;;;;4873734;29;20059;-75
2021/04/12 00:15:25;;;;;;;7.78;4.50;;;2.00;99.90;;;;;;4876869;29;20044;-76
2021/04/12 00:17:56;;;;;;;9.02;4.78;;;2.00;99.90;;;;;;4872509;29;20064;-75
2021/04/12 00:20:45;;;;;;;10.02;4.43;;;2.00;99.90;;;;;;4890460;29;20053;-75
2021/04/12 00:23:54;;;;;;;7.45;4.13;;;1.90;99.90;;;;;;4897391;29;20056;-76
2021/04/12 00:26:34;;;;;;;5.55;4.07;;;1.90;99.90;;;;;;4881115;29;20068;-76
2021/04/12 00:29:08;;;;;;;6.00;3.92;;;1.90;99.90;;;;;;4884318;29;20059;-76
2021/04/12 00:32:01;;;;;;;5.90;3.97;;;1.80;99.90;;;;;;4887896;29;20444;-75
2021/04/12 00:34:38;;;;;;;10.32;3.88;;;1.80;99.90;;;;;;4871422;29;20480;-76
2021/04/12 00:37:25;;;;;;;6.20;3.92;;;1.80;99.90;;;;;;4898369;29;20144;-77
2021/04/12 00:40:12;;;;;;;10.80;3.83;;;1.80;99.90;;;;;;4887850;29;20099;-77
2021/04/12 00:43:13;;;;;;;7.50;3.75;;;1.80;99.90;;;;;;4874362;29;20056;-76
2021/04/12 00:45:54;;;;;;;8.23;3.53;;;1.80;99.90;;;;;;4871884;29;20263;-76
2021/04/12 00:48:48;;;;;;;8.38;4.20;;;1.80;99.90;;;;;;4872874;29;20101;-76
2021/04/12 00:51:28;;;;;;;6.93;4.10;;;1.80;99.90;;;;;;4873207;29;20049;-76
2021/04/12 00:54:21;;;;;;;7.88;3.72;;;1.80;99.90;;;;;;4860189;29;20691;-76
2021/04/12 00:57:00;;;;;;;9.85;4.15;;;1.80;99.90;;;;;;4890304;29;20068;-76
2021/04/12 00:59:49;;;;;;;10.07;4.32;;;1.80;99.90;;;;;;4859953;29;20151;-76
2021/04/12 01:02:25;;;;;;;8.15;3.55;;;1.70;99.90;;;;;;4906034;29;20052;-76
2021/04/12 01:05:29;;;;;;;10.65;4.47;;;1.70;99.90;;;;;;4887482;29;20122;-76
2021/04/12 01:08:36;;;;;;;11.52;4.78;;;1.80;99.90;;;;;;4869282;29;20064;-76
2021/04/12 01:11:22;;;;;;;11.27;3.78;;;1.70;99.90;;;;;;4876257;29;20060;-76
2021/04/12 01:14:26;;;;;;;6.28;3.85;;;1.80;99.90;;;;;;4856389;29;20047;-76
2021/04/12 01:17:29;;;;;;;6.18;4.45;;;1.80;99.90;;;;;;4873618;29;20120;-77
2021/04/12 01:20:33;;;;;;;8.77;4.95;;;1.80;99.90;;;;;;4889267;29;20159;-77
2021/04/12 01:23:22;;;;;;;10.25;5.45;;;1.70;99.90;;;;;;4907643;29;20063;-76
2021/04/12 01:26:34;;;;;;;12.00;5.32;;;1.70;99.90;;;;;;4883642;29;20057;-77
2021/04/12 01:29:39;;;;;;;6.25;4.85;;;1.70;99.90;;;;;;4899066;29;20414;-77
2021/04/12 01:32:19;;;;;;;13.82;6.25;;;1.70;99.90;;;;;;4888029;29;20067;-77
2021/04/12 01:35:22;;;;;;;10.07;5.35;;;1.70;99.90;;;;;;4893763;29;20100;-76
2021/04/12 01:38:08;;;;;;;13.15;5.60;;;1.70;99.90;;;;;;4860194;29;20239;-76
2021/04/12 01:40:52;;;;;;;15.45;6.72;;;1.60;99.90;;;;;;4875442;29;20048;-76
2021/04/12 01:43:29;;;;;;;11.73;6.60;;;1.70;99.90;;;;;;4879732;29;20052;-76
2021/04/12 01:46:26;;;;;;;9.80;6.00;;;1.80;99.90;;;;;;4863079;29;20053;-77
2021/04/12 01:49:06;;;;;;;12.15;6.32;;;1.70;99.90;;;;;;4877995;29;20084;-77
2021/04/12 01:52:10;;;;;;;15.43;6.43;;;1.70;99.90;;;;;;4908777;29;20061;-77
2021/04/12 01:55:07;;;;;;;15.05;6.75;;;1.80;99.90;;;;;;4892610;29;20048;-76
2021/04/12 01:57:40;;;;;;;14.73;7.22;;;1.70;99.90;;;;;;4876025;29;20136;-77
2021/04/12 02:00:31;;;;;;;18.85;7.55;;;1.70;99.90;;;;;;4889008;29;20066;-76
2021/04/12 02:03:22;;;;;;;12.90;7.38;;;1.80;99.90;;;;;;4893321;29;20088;-76
2021/04/12 02:06:00;;;;;;;11.55;6.38;;;1.80;99.90;;;;;;4886419;29;20049;-77
2021/04/12 02:08:49;;;;;;;11.88;6.80;;;1.60;99.90;;;;;;4878300;29;20703;-75
2021/04/12 02:11:50;;;;;;;27.63;7.82;;;1.70;99.90;;;;;;4881188;29;20052;-77
2021/04/12 02:14:35;;;;;;;17.20;7.57;;;1.60;99.90;;;;;;4860048;29;20049;-76
2021/04/12 02:17:38;;;;;;;10.95;7.32;;;1.50;99.90;;;;;;4859591;29;20092;-76
2021/04/12 02:20:09;;;;;;;11.52;6.60;;;1.40;99.90;;;;;;4910145;29;20182;-77
2021/04/12 02:23:02;;;;;;;14.35;7.45;;;1.50;99.90;;;;;;4862547;29;20068;-77
2021/04/12 02:25:57;;;;;;;14.55;7.68;;;1.40;99.90;;;;;;4893342;29;20562;-76
2021/04/12 02:28:29;;;;;;;15.02;7.60;;;1.40;99.90;;;;;;4889666;29;20052;-75
2021/04/12 02:31:21;;;;;;;14.38;8.85;;;1.40;99.90;;;;;;4899791;29;20075;-76
2021/04/12 02:33:55;;;;;;;19.05;11.45;;;1.50;99.90;;;;;;4900683;29;20059;-76
2021/04/12 02:36:42;;;;;;;26.70;12.45;;;1.50;99.90;;;;;;4896388;29;20075;-76
2021/04/12 02:39:47;;;;;;;19.45;12.18;;;1.50;99.90;;;;;;4891857;29;20155;-75
2021/04/12 02:42:17;;;;;;;30.58;13.57;;;1.40;99.90;;;;;;4888590;29;20049;-76
2021/04/12 02:45:04;;;;;;;30.23;13.68;;;1.40;99.90;;;;;;4887793;29;20109;-76
2021/04/12 02:47:45;;;;;;;27.83;13.90;;;1.40;99.90;;;;;;4874016;29;20061;-75
2021/04/12 02:50:39;;;;;;;26.15;13.55;;;1.40;99.90;;;;;;4873730;29;20184;-75
2021/04/12 02:53:43;;;;;;;26.30;15.15;;;1.40;99.90;;;;;;4877153;29;20116;-75
2021/04/12 02:56:18;;;;;;;25.60;14.48;;;1.40;99.90;;;;;;4878704;29;20056;-75
2021/04/12 02:59:03;;;;;;;25.45;14.30;;;1.50;99.90;;;;;;4873811;29;20068;-75
2021/04/12 03:02:03;;;;;;;26.13;14.35;;;1.50;99.90;;;;;;4902326;29;20922;-75
2021/04/12 03:05:10;;;;;;;26.02;15.18;;;1.40;99.90;;;;;;4893649;29;20117;-75
2021/04/12 03:07:49;;;;;;;24.65;14.95;;;1.40;99.90;;;;;;4883683;29;20045;-74
2021/04/12 03:10:43;;;;;;;29.92;15.60;;;1.40;99.90;;;;;;4891583;29;20645;-75
2021/04/12 03:13:24;;;;;;;23.77;14.68;;;1.40;99.90;;;;;;4891202;29;20048;-76
2021/04/12 03:16:31;;;;;;;25.10;14.85;;;1.40;99.90;;;;;;4876395;29;20103;-75
2021/04/12 03:19:23;;;;;;;23.90;12.30;;;1.40;99.90;;;;;;4876780;29;20053;-75
2021/04/12 03:22:08;;;;;;;19.35;14.20;;;1.40;99.90;;;;;;4900199;29;20581;-76
2021/04/12 03:25:12;;;;;;;26.88;15.68;;;1.40;99.90;;;;;;4842743;29;20053;-75
2021/04/12 03:27:57;;;;;;;24.67;13.77;;;1.50;99.90;;;;;;4857769;29;20059;-77
2021/04/12 03:31:01;;;;;;;25.23;13.93;;;1.50;99.90;;;;;;4873052;29;20061;-75
2021/04/12 03:34:05;;;;;;;21.88;13.27;;;1.50;99.90;;;;;;4860110;29;20048;-74
2021/04/12 03:36:56;;;;;;;46.20;14.82;;;1.50;99.90;;;;;;4884576;29;20057;-75
2021/04/12 03:39:41;;;;;;;22.08;12.68;;;1.50;99.90;;;;;;4870206;29;20584;-75
2021/04/12 03:42:08;;;;;;;24.05;13.60;;;1.50;99.90;;;;;;4872273;29;20516;-76
2021/04/12 03:45:03;;;;;;;19.48;11.38;;;1.50;99.90;;;;;;4897549;29;20052;-77
2021/04/12 03:47:49;;;;;;;23.52;12.25;;;1.40;99.90;;;;;;4877020;29;20095;-74
2021/04/12 03:50:47;;;;;;;21.83;12.15;;;1.40;99.90;;;;;;4861284;29;20063;-75
2021/04/12 03:53:22;;;;;;;20.08;11.63;;;1.50;99.90;;;;;;4889268;29;20439;-74
2021/04/12 03:55:51;;;;;;;;;;;1.50;99.90;;;;;;4887836;29;20056;-75
2021/04/12 03:58:42;;;;;;;21.02;11.15;;;1.50;99.90;;;;;;4866065;29;19923;-76
2021/04/12 04:01:30;;;;;;;21.13;11.50;;;1.50;99.90;;;;;;4907430;29;20089;-76
2021/04/12 04:04:16;;;;;;;20.08;11.55;;;1.50;99.90;;;;;;4878788;29;20156;-76
2021/04/12 04:06:54;;;;;;;18.70;9.77;;;1.60;99.90;;;;;;4906534;29;20076;-77
2021/04/12 04:09:42;;;;;;;20.13;10.90;;;1.50;99.90;;;;;;4889527;29;20049;-76
2021/04/12 04:12:36;;;;;;;18.85;9.85;;;1.50;99.90;;;;;;4871727;29;20053;-75
2021/04/12 04:15:27;;;;;;;15.90;10.30;;;1.40;99.90;;;;;;4905688;29;20159;-76
2021/04/12 04:18:15;;;;;;;20.60;10.82;;;1.40;99.90;;;;;;4898434;29;20538;-76
2021/04/12 04:21:01;;;;;;;18.17;11.07;;;1.50;99.90;;;;;;4872512;29;20037;-77
2021/04/12 04:23:36;;;;;;;19.45;10.88;;;1.60;99.90;;;;;;4878034;29;20128;-75
2021/04/12 04:26:17;;;;;;;19.02;9.93;;;1.60;99.90;;;;;;4895060;29;20139;-75
2021/04/12 04:29:11;;;;;;;19.08;11.40;;;1.60;99.90;;;;;;4874877;29;20064;-76
2021/04/12 04:32:13;;;;;;;23.00;10.95;;;1.60;99.90;;;;;;4876433;29;20100;-76
2021/04/12 04:35:07;;;;;;;20.30;11.05;;;1.70;99.90;;;;;;4875090;29;20569;-76
2021/04/12 04:38:17;;;;;;;21.55;11.50;;;1.70;99.90;;;;;;4884389;29;20073;-76
2021/04/12 04:41:05;;;;;;;26.98;12.00;;;1.60;99.90;;;;;;4885490;29;20049;-76
2021/04/12 04:43:45;;;;;;;23.40;12.32;;;1.60;99.90;;;;;;4887174;29;20057;-75
2021/04/12 04:46:24;;;;;;;21.67;12.68;;;1.50;99.90;;;;;;4874326;29;20588;-77
2021/04/12 04:49:02;;;;;;;26.58;13.95;;;1.60;99.90;;;;;;4874323;29;20503;-76
2021/04/12 04:51:47;;;;;;;23.35;11.68;;;1.60;99.90;;;;;;4873633;29;20049;-76
2021/04/12 04:54:42;;;;;;;25.05;12.35;;;1.50;99.90;;;;;;4869921;29;20041;-76
2021/04/12 04:57:24;;;;;;;19.42;11.73;;;1.50;99.90;;;;;;4869122;29;20890;-76
2021/04/12 05:00:23;;;;;;;23.92;13.63;;;1.50;99.90;;;;;;4895533;29;20120;-76
2021/04/12 05:02:59;;;;;;;24.77;13.38;;;1.50;99.90;;;;;;4875490;29;20053;-76
2021/04/12 05:05:49;;;;;;;33.03;14.88;;;1.50;99.90;;;;;;4877839;29;20045;-76
2021/04/12 05:08:59;;;;;;;22.73;12.93;;;1.50;99.90;;;;;;4872667;29;20061;-77
2021/04/12 05:11:41;;;;;;;29.17;13.85;;;1.50;99.90;;;;;;4869977;29;20068;-75
2021/04/12 05:14:19;;;;;;;26.02;15.05;;;1.50;99.90;;;;;;4877144;29;20508;-76
2021/04/12 05:17:23;;;;;;;26.90;14.45;;;1.40;99.90;;;;;;4876403;29;20049;-76
2021/04/12 05:20:09;;;;;;;29.98;15.90;;;1.50;99.90;;;;;;4896609;29;20547;-76
2021/04/12 05:22:51;;;;;;;20.65;13.90;;;1.50;99.90;;;;;;4911896;29;20059;-76
2021/04/12 05:25:38;;;;;;;21.33;12.68;;;1.40;99.90;;;;;;4879656;29;20068;-76
2021/04/12 05:28:16;;;;;;;22.00;11.63;;;1.30;99.90;;;;;;4880901;29;20100;-76
2021/04/12 05:31:08;;;;;;;24.17;13.18;;;1.40;99.90;;;;;;4881219;29;20072;-77
2021/04/12 05:33:42;;;;;;;24.42;13.85;;;1.40;99.90;;;;;;4875324;29;20074;-78
2021/04/12 05:36:24;;;;;;;23.90;13.45;;;1.50;99.90;;;;;;4879446;29;20439;-75
2021/04/12 05:39:27;;;;;;;25.63;13.15;;;1.50;99.90;;;;;;4878504;29;20168;-76
2021/04/12 05:42:31;;;;;;;39.22;20.40;;;1.50;99.90;;;;;;4887984;29;20079;-75
2021/04/12 05:45:06;;;;;;;19.08;12.55;;;1.50;99.90;;;;;;4878031;29;20082;-76
2021/04/12 05:48:12;;;;;;;26.83;14.32;;;1.60;99.90;;;;;;4895767;29;20536;-76
2021/04/12 05:51:02;;;;;;;27.85;14.82;;;1.50;99.90;;;;;;4866015;29;20419;-75
2021/04/12 05:53:52;;;;;;;26.23;14.38;;;1.60;99.90;;;;;;4876654;29;20085;-75
2021/04/12 05:56:31;;;;;;;31.30;14.63;;;1.60;99.90;;;;;;4885585;29;20054;-76
2021/04/12 05:59:03;;;;;;;25.25;14.35;;;1.70;99.90;;;;;;4892156;29;20063;-76
2021/04/12 06:02:00;;;;;;;19.38;13.10;;;1.80;99.90;;;;;;4891912;29;20073;-77
2021/04/12 06:04:40;;;;;;;24.30;14.23;;;1.90;99.90;;;;;;4887724;29;20465;-76
2021/04/12 06:07:35;;;;;;;22.30;14.55;;;1.90;99.90;;;;;;4888726;29;20684;-77
2021/04/12 06:10:32;;;;;;;22.67;16.57;;;1.80;99.90;;;;;;4869391;29;20053;-77
2021/04/12 06:13:29;;;;;;;27.55;15.52;;;1.80;99.90;;;;;;4878278;29;20234;-78
2021/04/12 06:16:08;;;;;;;32.88;17.60;;;1.70;99.90;;;;;;4904988;29;20580;-77
2021/04/12 06:18:57;;;;;;;29.95;18.40;;;1.70;99.90;;;;;;4892337;29;20052;-77
2021/04/12 06:21:55;;;;;;;32.95;20.40;;;1.70;99.90;;;;;;4876300;29;20044;-78
2021/04/12 06:24:58;;;;;;;36.80;20.75;;;1.80;99.90;;;;;;4880213;29;20057;-78
2021/04/12 06:27:49;;;;;;;34.05;21.67;;;1.80;99.90;;;;;;4875562;29;20522;-78
2021/04/12 06:30:50;;;;;;;35.22;19.13;;;1.80;99.90;;;;;;4877872;29;20072;-78
2021/04/12 06:33:35;;;;;;;30.65;19.45;;;1.90;99.90;;;;;;4878196;29;20048;-78
2021/04/12 06:36:02;;;;;;;28.10;17.45;;;1.90;99.90;;;;;;4866440;29;20060;-77
2021/04/12 06:38:50;;;;;;;28.77;20.17;;;2.10;99.90;;;;;;4876687;29;20049;-78
2021/04/12 06:41:55;;;;;;;28.25;16.80;;;2.10;99.90;;;;;;4884572;29;20073;-78
2021/04/12 06:44:34;;;;;;;26.80;15.88;;;2.10;99.90;;;;;;4887584;29;20113;-78
2021/04/12 06:47:21;;;;;;;29.38;16.45;;;2.20;99.90;;;;;;4864884;29;20056;-79
2021/04/12 06:50:13;;;;;;;21.20;14.88;;;2.30;99.90;;;;;;4862456;29;20044;-77
2021/04/12 06:52:58;;;;;;;22.63;14.63;;;2.40;99.90;;;;;;4908586;29;20056;-78
2021/04/12 06:55:44;;;;;;;28.08;15.00;;;2.30;99.90;;;;;;4907162;29;20052;-77
2021/04/12 06:58:38;;;;;;;31.55;16.35;;;2.30;99.90;;;;;;4898182;29;20083;-78
2021/04/12 07:01:23;;;;;;;20.75;13.25;;;2.40;99.90;;;;;;4873847;29;20500;-78
2021/04/12 07:04:12;;;;;;;20.48;12.48;;;2.40;99.90;;;;;;4894741;29;20115;-77
2021/04/12 07:06:53;;;;;;;21.02;13.48;;;2.30;99.90;;;;;;4892350;29;20075;-75
2021/04/12 07:09:19;;;;;;;26.20;16.13;;;2.50;99.90;;;;;;4889188;29;20056;-77
2021/04/12 07:11:49;;;;;;;27.52;14.18;;;2.70;99.90;;;;;;4875817;29;20058;-76
2021/04/12 07:14:55;;;;;;;26.27;16.52;;;2.80;99.90;;;;;;4889798;29;20060;-77
2021/04/12 07:17:46;;;;;;;21.73;15.10;;;2.90;99.90;;;;;;4905002;29;20638;-77
2021/04/12 07:20:52;;;;;;;19.95;12.48;;;2.90;99.90;;;;;;4883121;29;20049;-76
2021/04/12 07:23:46;;;;;;;18.38;13.35;;;3.00;99.90;;;;;;4794103;29;20110;-76
2021/04/12 07:26:15;;;;;;;15.32;12.55;;;3.10;99.90;;;;;;4867304;29;20053;-77
2021/04/12 07:29:01;;;;;;;21.13;13.35;;;3.20;99.90;;;;;;4863817;29;20132;-77
2021/04/12 07:31:32;;;;;;;25.98;13.68;;;3.30;99.90;;;;;;4883962;29;20158;-77
2021/04/12 07:34:21;;;;;;;20.85;13.23;;;3.30;99.90;;;;;;4897376;29;20063;-77
2021/04/12 07:37:05;;;;;;;19.40;13.27;;;3.40;99.90;;;;;;4896869;29;20575;-77
2021/04/12 07:39:41;;;;;;;24.00;13.77;;;3.30;99.90;;;;;;4891637;29;20052;-77
2021/04/12 07:42:30;;;;;;;25.10;13.00;;;3.30;99.90;;;;;;4885221;29;20055;-77
2021/04/12 07:45:34;;;;;;;17.25;11.90;;;3.40;99.90;;;;;;4891298;29;20479;-78
2021/04/12 07:48:23;;;;;;;15.55;11.95;;;3.50;99.90;;;;;;4859941;29;20076;-77
2021/04/12 07:51:18;;;;;;;15.63;11.90;;;3.60;99.90;;;;;;4872733;29;20429;-77
2021/04/12 07:54:29;;;;;;;22.73;11.13;;;3.70;99.90;;;;;;4875380;29;20045;-76
2021/04/12 07:57:46;;;;;;;11.13;9.55;;;3.80;99.90;;;;;;4849433;29;20436;-77
2021/04/12 08:00:39;;;;;;;;;;;3.60;99.90;;;;;;4874990;29;20060;-76
2021/04/12 08:03:43;;;;;;;17.05;10.65;;;3.50;99.90;;;;;;4878279;29;19931;-77
2021/04/12 08:06:57;;;;;;;16.98;10.43;;;3.60;99.90;;;;;;4886445;29;20143;-78
2021/04/12 08:09:29;;;;;;;13.80;10.55;;;3.80;99.90;;;;;;4876313;29;20063;-77
2021/04/12 08:12:36;;;;;;;16.40;11.05;;;3.70;99.90;;;;;;4891052;29;20084;-77
2021/04/12 08:15:42;;;;;;;17.15;10.27;;;3.70;99.90;;;;;;4892020;29;20099;-76
2021/04/12 08:19:02;;;;;;;19.17;10.43;;;3.60;99.90;;;;;;4877643;29;20615;-76
2021/04/12 08:22:02;;;;;;;12.77;8.73;;;3.30;99.90;;;;;;4851605;29;20162;-76
2021/04/12 08:24:58;;;;;;;18.55;9.32;;;3.20;99.90;;;;;;4870979;29;20146;-76
2021/04/12 08:28:01;;;;;;;16.85;9.70;;;3.20;99.90;;;;;;4879573;29;20583;-75
2021/04/12 08:30:49;;;;;;;16.55;9.38;;;3.20;99.90;;;;;;4897914;29;20531;-74
2021/04/12 08:33:30;;;;;;;11.32;10.00;;;3.50;99.90;;;;;;4883444;29;20079;-75
2021/04/12 08:36:34;;;;;;;13.77;8.35;;;4.00;99.90;;;;;;4860088;29;20057;-79
2021/04/12 08:39:40;;;;;;;11.75;9.05;;;4.60;99.90;;;;;;4891810;29;20060;-79
2021/04/12 08:42:32;;;;;;;17.92;9.43;;;5.10;99.90;;;;;;4857736;29;20104;-77
2021/04/12 08:45:19;;;;;;;9.60;8.00;;;5.20;99.90;;;;;;4863927;29;20056;-79
2021/04/12 08:48:15;;;;;;;12.35;8.45;;;5.50;99.90;;;;;;4879451;29;20048;-78
2021/04/12 08:50:54;;;;;;;10.63;9.52;;;5.80;99.90;;;;;;4876159;29;20136;-78
2021/04/12 08:53:48;;;;;;;14.25;9.95;;;5.60;99.90;;;;;;4892271;29;20048;-79
2021/04/12 08:56:33;;;;;;;12.77;10.07;;;5.30;99.90;;;;;;4891596;29;20547;-79
2021/04/12 08:59:18;;;;;;;12.43;9.82;;;5.20;99.90;;;;;;4890383;29;20057;-75
2021/04/12 09:02:12;;;;;;;10.48;8.85;;;4.80;99.90;;;;;;4871415;29;20057;-75
2021/04/12 09:05:11;;;;;;;10.27;9.23;;;4.60;99.90;;;;;;4881528;29;20052;-75
2021/04/12 09:08:11;;;;;;;13.55;9.27;;;4.50;99.90;;;;;;4867652;29;20135;-75
2021/04/12 09:11:20;;;;;;;9.90;9.00;;;4.30;99.90;;;;;;4871979;29;20045;-75
2021/04/12 09:14:26;;;;;;;10.57;9.55;;;4.30;99.90;;;;;;4871766;29;20083;-75
2021/04/12 09:17:14;;;;;;;17.67;10.65;;;4.40;99.90;;;;;;4877804;29;20050;-76
2021/04/12 09:20:00;;;;;;;12.70;9.57;;;4.50;99.90;;;;;;4903963;29;20056;-75
2021/04/12 09:22:57;;;;;;;10.55;9.50;;;4.50;99.90;;;;;;4884920;29;20060;-76
2021/04/12 09:25:48;;;;;;;14.45;10.77;;;4.50;99.90;;;;;;4873392;29;20052;-75
2021/04/12 09:28:27;;;;;;;10.15;8.70;;;4.50;99.90;;;;;;4904581;29;20048;-75
2021/04/12 09:31:20;;;;;;;19.90;12.75;;;4.40;99.90;;;;;;4873698;29;20057;-75
2021/04/12 09:34:41;;;;;;;13.55;8.75;;;4.50;99.90;;;;;;4896627;29;20057;-76
2021/04/12 09:37:16;;;;;;;10.93;7.85;;;4.70;99.90;;;;;;4849751;29;20054;-77
2021/04/12 09:39:55;;;;;;;;;;;4.80;99.90;;;;;;4869671;29;20064;-75
2021/04/12 09:42:34;;;;;;;10.15;9.15;;;4.80;99.90;;;;;;4871992;29;20326;-74
2021/04/12 09:45:38;;;;;;;10.35;9.25;;;4.90;99.90;;;;;;4895692;29;20439;-76
2021/04/12 09:48:34;;;;;;;18.23;10.25;;;4.90;99.90;;;;;;4852148;29;20065;-74
2021/04/12 09:51:39;;;;;;;10.75;8.35;;;4.70;99.90;;;;;;4883670;29;20060;-75
2021/04/12 09:54:12;;;;;;;18.40;9.20;;;4.50;99.90;;;;;;4881520;29;20136;-75
2021/04/12 09:56:39;;;;;;;16.15;9.80;;;4.40;99.90;;;;;;4879713;29;20065;-77
2021/04/12 09:59:46;;;;;;;13.38;9.52;;;4.20;99.90;;;;;;4873985;29;20136;-75
2021/04/12 10:02:35;;;;;;;9.35;8.50;;;4.30;99.90;;;;;;4889697;29;20161;-76
2021/04/12 10:05:32;;;;;;;11.50;8.88;;;4.30;99.90;;;;;;4887282;29;20117;-76
2021/04/12 10:08:12;;;;;;;13.68;10.98;;;4.20;99.90;;;;;;4874462;29;20060;-75
2021/04/12 10:11:04;;;;;;;15.45;12.38;;;3.70;99.90;;;;;;4857914;29;20068;-73
2021/04/12 10:13:42;;;;;;;17.35;11.85;;;3.30;99.90;;;;;;4879984;29;20048;-73
2021/04/12 10:16:27;;;;;;;17.25;11.52;;;3.00;99.90;;;;;;4890700;29;20480;-75
2021/04/12 10:19:19;;;;;;;12.88;9.48;;;2.90;99.90;;;;;;4874931;29;20052;-74
2021/04/12 10:22:10;;;;;;;12.45;9.43;;;3.10;99.90;;;;;;4887695;29;20053;-75
2021/04/12 10:24:53;;;;;;;12.98;10.02;;;3.20;99.90;;;;;;4872045;29;20045;-75
2021/04/12 10:27:49;;;;;;;17.13;10.80;;;3.80;99.90;;;;;;4878676;29;20083;-75
2021/04/12 10:30:20;;;;;;;10.68;8.00;;;4.50;99.90;;;;;;4889889;29;20060;-73
2021/04/12 10:33:05;;;;;;;13.18;9.40;;;4.80;99.90;;;;;;4878011;29;20503;-74
2021/04/12 10:35:36;;;;;;;;;;;5.40;99.90;;;;;;4875989;29;20537;-76
2021/04/12 10:38:25;;;;;;;14.80;13.45;;;5.70;99.90;;;;;;4889910;29;19930;-75
2021/04/12 10:41:24;;;;;;;15.20;13.70;;;6.10;99.90;;;;;;4872643;29;20057;-75
2021/04/12 10:44:31;;;;;;;13.07;11.93;;;6.20;99.90;;;;;;4900593;29;20084;-75
2021/04/12 10:47:02;;;;;;;11.00;9.90;;;6.10;99.90;;;;;;4865448;29;20063;-75
2021/04/12 10:49:55;;;;;;;11.50;10.55;;;6.30;99.90;;;;;;4878644;29;20049;-75
2021/04/12 10:52:38;;;;;;;11.35;10.30;;;6.00;99.90;;;;;;4884886;29;20056;-74
2021/04/12 10:55:49;;;;;;;17.58;11.68;;;5.80;99.90;;;;;;4872825;29;20053;-75
2021/04/12 10:58:54;;;;;;;10.75;8.75;;;5.90;99.90;;;;;;4801809;29;20642;-76
2021/04/12 11:01:42;;;;;;;9.35;8.45;;;6.20;99.90;;;;;;4873345;29;20049;-75
2021/04/12 11:04:47;;;;;;;11.43;10.52;;;6.60;99.90;;;;;;4906158;29;20068;-76
2021/04/12 11:07:21;;;;;;;12.02;10.90;;;6.90;99.90;;;;;;4888493;29;20057;-76
2021/04/12 11:10:16;;;;;;;11.93;11.13;;;6.90;99.90;;;;;;4873457;29;20508;-76
2021/04/12 11:12:56;;;;;;;13.45;12.20;;;7.10;99.90;;;;;;4888811;29;20305;-76
2021/04/12 11:15:48;;;;;;;12.00;11.05;;;7.30;99.90;;;;;;4905492;29;20139;-76
2021/04/12 11:18:39;;;;;;;12.07;11.02;;;7.60;99.90;;;;;;4888603;29;20063;-76
2021/04/12 11:21:26;;;;;;;13.38;12.35;;;7.80;99.90;;;;;;4883621;29;20052;-76
2021/04/12 11:24:18;;;;;;;12.88;11.68;;;7.70;99.90;;;;;;4889200;29;20216;-76
2021/04/12 11:27:26;;;;;;;15.32;13.07;;;7.80;99.90;;;;;;4896897;29;20080;-75
2021/04/12 11:30:20;;;;;;;14.75;13.45;;;7.30;99.90;;;;;;4873685;29;21523;-75
2021/04/12 11:33:02;;;;;;;14.30;13.25;;;6.20;99.90;;;;;;4868009;29;20136;-74
2021/04/12 11:35:47;;;;;;;13.43;12.02;;;5.20;99.90;;;;;;4867435;29;20060;-75
2021/04/12 11:38:21;;;;;;;14.07;12.85;;;4.80;99.90;;;;;;4877537;29;20048;-75
2021/04/12 11:41:05;;;;;;;19.90;17.17;;;4.70;99.90;;;;;;4879209;29;20115;-75
2021/04/12 11:43:36;;;;;;;13.48;11.30;;;5.20;99.90;;;;;;4872877;29;20080;-75
2021/04/12 11:46:34;;;;;;;13.57;12.30;;;5.80;99.90;;;;;;4878873;29;20140;-75
2021/04/12 11:49:13;;;;;;;14.48;13.52;;;6.20;99.90;;;;;;4874992;29;20055;-75
2021/04/12 11:51:48;;;;;;;15.25;14.15;;;6.70;99.90;;;;;;4900892;29;20083;-76
2021/04/12 11:54:40;;;;;;;14.85;13.88;;;6.90;99.90;;;;;;4887206;29;20152;-76
2021/04/12 11:57:28;;;;;;;15.60;14.35;;;7.00;99.90;;;;;;4896524;29;20052;-76
2021/04/12 12:00:06;;;;;;;17.23;15.95;;;6.90;99.90;;;;;;4872569;29;20317;-76
2021/04/12 12:03:05;;;;;;;13.45;12.65;;;7.20;99.90;;;;;;4881155;29;20051;-76
2021/04/12 12:05:35;;;;;;;12.40;11.63;;;7.20;99.90;;;;;;4888817;29;20511;-76
2021/04/12 12:08:09;;;;;;;11.98;10.93;;;7.00;99.90;;;;;;4878994;29;20060;-76
2021/04/12 12:10:56;;;;;;;11.80;10.98;;;6.30;99.90;;;;;;4875860;29;20045;-76
2021/04/12 12:13:43;;;;;;;11.18;10.30;;;5.30;99.90;;;;;;4891147;29;20052;-75
2021/04/12 12:16:26;;;;;;;9.77;8.80;;;4.70;99.90;;;;;;4871861;29;20072;-74
2021/04/12 12:18:59;;;;;;;8.05;7.35;;;4.00;99.90;;;;;;4900542;29;20056;-74
2021/04/12 12:21:34;;;;;;;7.25;6.65;;;3.70;99.90;;;;;;4894138;29;20051;-74
2021/04/12 12:24:11;;;;;;;8.45;7.55;;;3.30;99.90;;;;;;4888989;29;20092;-75
2021/04/12 12:26:41;;;;;;;7.13;6.32;;;3.20;99.90;;;;;;4874064;29;20136;-74
2021/04/12 12:29:16;;;;;;;12.25;7.20;;;3.20;99.90;;;;;;4890472;29;20056;-74
2021/04/12 12:32:06;;;;;;;8.77;7.05;;;3.30;99.90;;;;;;4859658;29;20060;-74
2021/04/12 12:35:09;;;;;;;9.70;5.80;;;3.30;99.90;;;;;;4900515;29;20555;-74
2021/04/12 12:38:02;;;;;;;7.60;5.38;;;3.50;99.90;;;;;;4887631;29;20057;-73
2021/04/12 12:40:35;;;;;;;7.50;6.55;;;3.60;99.90;;;;;;4871993;29;20100;-73
2021/04/12 12:43:12;;;;;;;8.88;5.45;;;3.80;99.90;;;;;;4874048;29;20040;-73
2021/04/12 12:45:40;;;;;;;7.40;5.65;;;3.90;99.90;;;;;;4878187;29;20853;-74
2021/04/12 12:48:20;;;;;;;5.35;4.88;;;4.20;99.90;;;;;;4881474;29;20049;-74
2021/04/12 12:51:11;;;;;;;7.65;5.78;;;4.10;99.90;;;;;;4873230;29;20049;-75
2021/04/12 12:53:41;;;;;;;5.57;5.15;;;4.20;99.90;;;;;;4856101;29;20056;-75
2021/04/12 12:56:11;;;;;;;6.07;5.57;;;4.10;99.90;;;;;;4886212;29;20469;-76
2021/04/12 12:58:39;;;;;;;6.50;5.93;;;4.30;99.90;;;;;;4899515;29;20045;-76
2021/04/12 13:01:10;;;;;;;6.93;6.22;;;4.70;99.90;;;;;;4905410;29;20096;-77
2021/04/12 13:03:40;;;;;;;6.95;6.25;;;5.10;99.90;;;;;;4885852;29;20667;-74
2021/04/12 13:06:28;;;;;;;5.70;5.18;;;5.30;99.90;;;;;;4884674;29;20049;-75
2021/04/12 13:08:59;;;;;;;6.00;5.45;;;5.50;99.90;;;;;;4888053;29;20060;-75
2021/04/12 13:11:38;;;;;;;10.23;9.23;;;5.60;99.90;;;;;;4905464;29;20058;-76
2021/04/12 13:14:35;;;;;;;9.35;8.73;;;5.60;99.90;;;;;;4872832;29;20563;-75
2021/04/12 13:17:36;;;;;;;12.38;11.20;;;5.90;99.90;;;;;;4870011;29;20057;-76
2021/04/12 13:20:15;;;;;;;10.85;9.50;;;5.80;99.90;;;;;;4894419;29;20151;-76
2021/04/12 13:22:50;;;;;;;8.07;7.47;;;5.90;99.90;;;;;;4891000;29;20048;-75
2021/04/12 13:25:23;;;;;;;11.25;10.60;;;6.30;99.90;;;;;;4889787;29;20059;-75
2021/04/12 13:27:59;;;;;;;8.98;8.27;;;6.10;99.90;;;;;;4886896;29;20076;-74
2021/04/12 13:30:29;;;;;;;10.40;9.80;;;6.50;99.90;;;;;;4870206;29;20396;-74
2021/04/12 13:33:23;;;;;;;11.30;10.65;;;6.60;99.90;;;;;;4890739;29;20116;-74
2021/04/12 13:35:57;;;;;;;12.07;11.30;;;6.90;99.90;;;;;;4901855;29;20049;-74
2021/04/12 13:38:30;;;;;;;11.98;10.95;;;6.90;99.90;;;;;;4875234;29;20543;-75
2021/04/12 13:41:24;;;;;;;14.05;12.88;;;7.00;99.90;;;;;;4888458;29;20064;-75
2021/04/12 13:43:54;;;;;;;13.15;12.13;;;6.90;99.90;;;;;;4875659;29;20534;-75
2021/04/12 13:46:33;;;;;;;11.52;11.02;;;7.00;99.90;;;;;;4894321;29;20553;-75
2021/04/12 13:49:19;;;;;;;13.27;12.32;;;6.90;99.90;;;;;;4892852;29;20063;-75
2021/04/12 13:51:54;;;;;;;;;;;7.00;99.90;;;;;;4874349;29;20112;-75
2021/04/12 13:54:30;;;;;;;12.75;12.02;;;7.00;99.90;;;;;;4875179;29;19988;-75
2021/04/12 13:57:05;;;;;;;13.13;12.52;;;7.20;99.90;;;;;;4881679;29;20048;-75
2021/04/12 13:59:41;;;;;;;14.65;13.57;;;6.90;99.90;;;;;;4884625;29;20636;-75
2021/04/12 14:02:21;;;;;;;12.38;11.77;;;6.80;99.90;;;;;;4889280;29;20056;-75
2021/04/12 14:04:53;;;;;;;11.65;11.05;;;7.10;99.90;;;;;;4870417;29;20140;-75
2021/04/12 14:07:53;;;;;;;9.13;8.52;;;7.50;99.90;;;;;;4874805;29;20153;-74
2021/04/12 14:10:29;;;;;;;8.77;8.18;;;7.50;99.90;;;;;;4877446;29;20456;-75
2021/04/12 14:13:04;;;;;;;8.57;8.05;;;7.20;99.90;;;;;;4887718;29;20053;-75
2021/04/12 14:15:52;;;;;;;7.97;7.57;;;7.00;99.90;;;;;;4890348;29;20517;-74
2021/04/12 14:18:41;;;;;;;9.27;8.68;;;6.90;99.90;;;;;;4902960;29;20531;-75
2021/04/12 14:21:26;;;;;;;8.00;7.57;;;7.10;99.90;;;;;;4889714;29;20719;-75
2021/04/12 14:23:55;;;;;;;8.57;7.95;;;6.90;99.90;;;;;;4888780;29;20076;-76
2021/04/12 14:26:39;;;;;;;8.57;7.80;;;7.00;99.90;;;;;;4889354;29;20213;-75
2021/04/12 14:29:28;;;;;;;6.97;6.28;;;7.10;99.90;;;;;;4887856;29;20049;-75
2021/04/12 14:32:07;;;;;;;7.78;7.20;;;6.90;99.90;;;;;;4904622;29;20506;-75